aviador You're here:

OISY Decoded Metar

in _UNIDENTIFIED
Report Time2017-10-20 12:00:00
UTC Time2017-10-20 12:32:26
Flight Rules vfr VFR
Wind300° at 10 kt
W.Decomp.*RWY 31: 9.8 kt HW 2.1 kt LCW
W.Rank300° ranks 14
Current wind is above 300° avg. (7.6)
Visibility9999 m
Phenomena:N/A
Clouds:N/A
Expected CloudBase > 13,200 ft AGL from Temp-Dew spread
CeilingNone
Temp23°C
Dew Point-10°C (10% RH)
AAT16.3°C
QNH1023 hPa
Raw Report
METAR OISY 201200Z 30010KT CAVOK 23/M10 Q1023=

Extra information for OISY:More info

Metar Taf Metar & Taf Last 4 Metars F.Rules Stats Wind Profile Meteogram Temp Stats Metar ALERT Operation Metar Decoded Social comments